Detall de PIREP

Printer-friendly versionPDF version

[2013/12/12 16:45:00]
Flight IATA:CT3224
Pilot Number:012
Company ICAO:CAT
Aircraft Type:MD11/E
PAX:0
Aircraft Registration:CARGO
Departing Airport: LEPA
Destination Airport: LJLJ
Alternate Airport:LDZA
Online: VATSIM
Route:MEROS UN853 LUMAS UM985 GEN UM859 BARPI
Flight Level:F320
No Slew and time accel
No pause
Crash detect
Detect pilot in Cockpit between each 30 and 45 minutes
16:45 Zero fuel Weight: 429291 Lbs, Fuel Weight: 61909 Lbs
16:45 VATSIM:LEPA 121630Z 21003KT 9999 FEW030 13/10 Q1028 NOSIG
16:45 VATSIM:LJLJ 121630Z 00000KT 9999 FEW008 M01/M02 Q1030 NOSIG
16:45 VOICE CATALONIAN
16:47 Parking Brakes off
16:54 Take-off
16:54 Take off Weight: 489688 Lbs
16:54 Wind: 229º @ 003 Knots Heading: 238º
16:54 POS N39º 33´ 09´´ E002º 43´ 19´´
16:54 Gear Up: 201 Knots
16:54 Flaps:3 at 201 Knots
16:55 Flaps:2 at 221 Knots
16:55 Flaps:3 at 224 Knots
16:55 Flaps:2 at225 Knots
16:55 Flaps:1 at 226 Knots
16:55 Flaps:0 at 269 Knots
17:09 Wind:342º@011 Knots Heading: 026º Ground Speed: 477 Knots Altitude 30433 ft
17:24 Wind:003º@017 Knots Heading: 038º Ground Speed: 466 Knots Altitude 30439 ft
17:39 Wind:356º@023 Knots Heading: 051º Ground Speed: 465 Knots Altitude 30446 ft
17:45 TOC
17:45 Fuel Weight: 39904 Lb
17:54 Wind:344º@043 Knots Heading: 076º Ground Speed: 484 Knots Altitude 32463 ft
18:09 Wind:339º@024 Knots Heading: 058º Ground Speed: 477 Knots Altitude 32519 ft
18:15 TOD
18:15 Fuel Weight: 31512 Lb
18:24 Wind:330º@011 Knots Heading: 058º Ground Speed: 359 Knots Altitude 17280 ft
18:29 Flaps:1 at 258 Knots
18:33 Flaps:2 at 260 Knots
18:33 Gear Down: 260 Knots
18:33 Flaps:3 at 258 Knots
18:33 Flaps:4 at 232 Knots
18:33 Flaps:3 at 232 Knots
18:33 Flaps:4 at 233 Knots
18:33 Flaps:5 at 226 Knots
18:33 Flaps:6 at 212 Knots
18:34 Flaps:7 at 189 Knots
18:35 TouchDown:Rate -145 ft/min Speed: 162 Knots
18:35 VATSIM:LJLJ 121800Z 31001KT 4000 MIFG BR FEW003 M02/M02 Q1030 NOSIG
18:35 Land
18:35 Wind:359º@000 Knots
18:35 Heading: 306º
18:35 Flight Duration: 01:41
18:35 Landing Weight: 458433 Lbs
18:35 POS N46º 13´ 26´´ E014º 27´ 24´´
18:38 Parking brakes on
18:38 Block to Block Duration: 01:51
18:38 Final Fuel: 28681 Lbls
18:38 Spent Fuel: 33227 Lbls
18:38 Flight Length: 735 NM
18:38 TOD Land Length: 110 NM

Exportar CSV

Powered by Drupal - Modified by Danger4k